sensor_id;sensor_type;location;lat;lon;timestamp;temperature;humidity
33793;DHT22;20105;48.764;9.178;2022-10-16T07:21:18;16.90;99.90
33793;DHT22;20105;48.764;9.178;2022-10-16T07:23:44;16.90;99.90
33793;DHT22;20105;48.764;9.178;2022-10-16T07:26:11;17.00;99.90
33793;DHT22;20105;48.764;9.178;2022-10-16T07:28:37;17.00;99.90
33793;DHT22;20105;48.764;9.178;2022-10-16T07:31:05;16.90;99.90
33793;DHT22;20105;48.764;9.178;2022-10-16T07:33:32;16.90;99.90
33793;DHT22;20105;48.764;9.178;2022-10-16T07:35:58;16.90;99.90
33793;DHT22;20105;48.764;9.178;2022-10-16T07:38:24;16.90;99.90
33793;DHT22;20105;48.764;9.178;2022-10-16T07:41:00;16.90;99.90
33793;DHT22;20105;48.764;9.178;2022-10-16T07:43:26;16.90;99.90
33793;DHT22;20105;48.764;9.178;2022-10-16T07:45:52;17.00;99.90
33793;DHT22;20105;48.764;9.178;2022-10-16T07:48:18;17.10;99.90
33793;DHT22;20105;48.764;9.178;2022-10-16T07:50:45;17.10;99.90
33793;DHT22;20105;48.764;9.178;2022-10-16T07:53:11;17.10;99.90
33793;DHT22;20105;48.764;9.178;2022-10-16T07:55:37;17.30;99.90
33793;DHT22;20105;48.764;9.178;2022-10-16T07:58:03;17.50;99.90
33793;DHT22;20105;48.764;9.178;2022-10-16T08:00:30;17.50;99.90
33793;DHT22;20105;48.764;9.178;2022-10-16T08:02:57;17.40;99.90
33793;DHT22;20105;48.764;9.178;2022-10-16T08:05:26;17.40;99.90
33793;DHT22;20105;48.764;9.178;2022-10-16T08:07:52;17.30;99.90
33793;DHT22;20105;48.764;9.178;2022-10-16T08:12:45;17.50;99.90
33793;DHT22;20105;48.764;9.178;2022-10-16T08:15:10;17.60;99.90
33793;DHT22;20105;48.764;9.178;2022-10-16T08:17:36;17.60;99.90
33793;DHT22;20105;48.764;9.178;2022-10-16T08:20:02;17.60;99.90
33793;DHT22;20105;48.764;9.178;2022-10-16T08:29:45;17.80;99.90
33793;DHT22;20105;48.764;9.178;2022-10-16T09:10:35;18.40;99.90
33793;DHT22;20105;48.764;9.178;2022-10-16T09:18:48;18.80;99.90
33793;DHT22;20105;48.764;9.178;2022-10-16T09:23:47;18.90;99.90
33793;DHT22;20105;48.764;9.178;2022-10-16T09:26:14;18.90;99.90
33793;DHT22;20105;48.764;9.178;2022-10-16T09:28:41;18.80;99.90
33793;DHT22;20105;48.764;9.178;2022-10-16T09:31:16;18.80;99.90
33793;DHT22;20105;48.764;9.178;2022-10-16T09:33:44;18.80;99.90
33793;DHT22;20105;48.764;9.178;2022-10-16T09:36:11;18.80;99.90
33793;DHT22;20105;48.764;9.178;2022-10-16T09:48:51;19.30;99.90
33793;DHT22;20105;48.764;9.178;2022-10-16T09:56:28;19.70;99.90
33793;DHT22;20105;48.764;9.178;2022-10-16T09:58:56;19.90;99.50
33793;DHT22;20105;48.764;9.178;2022-10-16T10:01:26;19.90;98.80
33793;DHT22;20105;48.764;9.178;2022-10-16T10:03:56;20.00;99.30
33793;DHT22;20105;48.764;9.178;2022-10-16T10:11:42;20.20;98.30
33793;DHT22;20105;48.764;9.178;2022-10-16T10:14:26;20.30;98.60
33793;DHT22;20105;48.764;9.178;2022-10-16T10:17:07;20.40;98.10
33793;DHT22;20105;48.764;9.178;2022-10-16T10:19:55;20.40;97.10
33793;DHT22;20105;48.764;9.178;2022-10-16T10:30:51;20.50;97.20
33793;DHT22;20105;48.764;9.178;2022-10-16T10:39:12;20.90;95.80
33793;DHT22;20105;48.764;9.178;2022-10-16T12:49:51;24.10;87.40
33793;DHT22;20105;48.764;9.178;2022-10-16T12:52:35;24.00;87.40
33793;DHT22;20105;48.764;9.178;2022-10-16T12:55:01;23.70;88.10
33793;DHT22;20105;48.764;9.178;2022-10-16T13:00:12;23.30;90.60
33793;DHT22;20105;48.764;9.178;2022-10-16T13:05:41;23.00;91.20
33793;DHT22;20105;48.764;9.178;2022-10-16T13:11:22;22.90;91.50
33793;DHT22;20105;48.764;9.178;2022-10-16T13:14:28;22.80;91.90
33793;DHT22;20105;48.764;9.178;2022-10-16T13:20:05;23.20;91.00
33793;DHT22;20105;48.764;9.178;2022-10-16T13:25:29;23.30;90.40
33793;DHT22;20105;48.764;9.178;2022-10-16T13:28:04;23.20;90.80
33793;DHT22;20105;48.764;9.178;2022-10-16T13:30:41;23.10;91.10
33793;DHT22;20105;48.764;9.178;2022-10-16T13:33:17;23.10;92.10
33793;DHT22;20105;48.764;9.178;2022-10-16T13:35:56;23.10;92.00
33793;DHT22;20105;48.764;9.178;2022-10-16T13:38:24;23.10;92.60
33793;DHT22;20105;48.764;9.178;2022-10-16T13:43:22;23.10;91.80
33793;DHT22;20105;48.764;9.178;2022-10-16T13:46:03;23.10;91.70
33793;DHT22;20105;48.764;9.178;2022-10-16T13:48:31;23.20;91.70
33793;DHT22;20105;48.764;9.178;2022-10-16T13:51:13;23.30;91.10
33793;DHT22;20105;48.764;9.178;2022-10-16T13:53:40;23.40;91.30
33793;DHT22;20105;48.764;9.178;2022-10-16T13:56:11;23.40;90.70
33793;DHT22;20105;48.764;9.178;2022-10-16T13:58:37;23.50;91.00
33793;DHT22;20105;48.764;9.178;2022-10-16T14:01:25;23.50;90.70
33793;DHT22;20105;48.764;9.178;2022-10-16T14:03:51;23.50;90.70
33793;DHT22;20105;48.764;9.178;2022-10-16T14:09:35;23.40;91.40
33793;DHT22;20105;48.764;9.178;2022-10-16T14:14:04;22.80;92.00
33793;DHT22;20105;48.764;9.178;2022-10-16T14:16:31;22.70;92.20
33793;DHT22;20105;48.764;9.178;2022-10-16T14:19:00;22.60;93.20
33793;DHT22;20105;48.764;9.178;2022-10-16T14:21:27;22.60;93.60
33793;DHT22;20105;48.764;9.178;2022-10-16T14:23:54;22.60;93.60
33793;DHT22;20105;48.764;9.178;2022-10-16T14:26:25;22.70;93.60
33793;DHT22;20105;48.764;9.178;2022-10-16T14:29:08;22.70;94.20
33793;DHT22;20105;48.764;9.178;2022-10-16T14:31:35;22.80;94.70
33793;DHT22;20105;48.764;9.178;2022-10-16T14:34:02;22.80;95.20
33793;DHT22;20105;48.764;9.178;2022-10-16T14:36:29;22.80;95.80
33793;DHT22;20105;48.764;9.178;2022-10-16T14:39:02;22.80;95.40
33793;DHT22;20105;48.764;9.178;2022-10-16T14:41:30;22.80;96.40
33793;DHT22;20105;48.764;9.178;2022-10-16T14:44:04;22.80;97.00
33793;DHT22;20105;48.764;9.178;2022-10-16T14:46:35;22.70;97.20
33793;DHT22;20105;48.764;9.178;2022-10-16T14:49:22;22.70;97.00
33793;DHT22;20105;48.764;9.178;2022-10-16T14:51:49;22.70;96.80
33793;DHT22;20105;48.764;9.178;2022-10-16T14:54:18;22.80;96.70
33793;DHT22;20105;48.764;9.178;2022-10-16T14:56:51;22.90;96.00
33793;DHT22;20105;48.764;9.178;2022-10-16T14:59:35;22.90;97.40
33793;DHT22;20105;48.764;9.178;2022-10-16T15:02:20;22.90;97.60
33793;DHT22;20105;48.764;9.178;2022-10-16T15:04:48;22.90;98.20
33793;DHT22;20105;48.764;9.178;2022-10-16T15:07:14;22.80;97.60
33793;DHT22;20105;48.764;9.178;2022-10-16T15:09:40;22.80;95.60
33793;DHT22;20105;48.764;9.178;2022-10-16T15:12:05;22.80;93.60
33793;DHT22;20105;48.764;9.178;2022-10-16T15:14:31;22.80;94.70
33793;DHT22;20105;48.764;9.178;2022-10-16T15:16:57;22.80;94.30
33793;DHT22;20105;48.764;9.178;2022-10-16T15:19:23;22.80;93.60
33793;DHT22;20105;48.764;9.178;2022-10-16T15:21:48;22.90;93.50
33793;DHT22;20105;48.764;9.178;2022-10-16T15:24:15;22.80;94.00
33793;DHT22;20105;48.764;9.178;2022-10-16T15:26:40;22.80;93.80
33793;DHT22;20105;48.764;9.178;2022-10-16T15:29:06;22.80;93.70
33793;DHT22;20105;48.764;9.178;2022-10-16T15:31:32;22.70;94.40
33793;DHT22;20105;48.764;9.178;2022-10-16T15:33:58;22.60;95.30
33793;DHT22;20105;48.764;9.178;2022-10-16T15:36:38;22.50;95.60
33793;DHT22;20105;48.764;9.178;2022-10-16T15:39:12;22.40;97.60
33793;DHT22;20105;48.764;9.178;2022-10-16T15:41:37;22.20;96.60
33793;DHT22;20105;48.764;9.178;2022-10-16T15:44:03;22.10;98.20
33793;DHT22;20105;48.764;9.178;2022-10-16T15:46:29;22.00;98.80
33793;DHT22;20105;48.764;9.178;2022-10-16T15:48:58;21.80;99.80
33793;DHT22;20105;48.764;9.178;2022-10-16T15:51:25;21.70;99.90
33793;DHT22;20105;48.764;9.178;2022-10-16T15:53:52;21.80;99.90
33793;DHT22;20105;48.764;9.178;2022-10-16T15:56:19;21.90;99.20
33793;DHT22;20105;48.764;9.178;2022-10-16T15:58:44;21.90;98.90
33793;DHT22;20105;48.764;9.178;2022-10-16T16:01:11;21.90;99.40
33793;DHT22;20105;48.764;9.178;2022-10-16T16:03:38;21.70;99.80
33793;DHT22;20105;48.764;9.178;2022-10-16T16:06:08;21.60;99.90
33793;DHT22;20105;48.764;9.178;2022-10-16T16:08:34;21.50;99.90
33793;DHT22;20105;48.764;9.178;2022-10-16T16:11:05;21.30;99.90
33793;DHT22;20105;48.764;9.178;2022-10-16T16:13:31;21.20;99.90
33793;DHT22;20105;48.764;9.178;2022-10-16T16:15:57;21.10;99.90
33793;DHT22;20105;48.764;9.178;2022-10-16T16:18:23;20.90;99.90
33793;DHT22;20105;48.764;9.178;2022-10-16T16:20:52;20.80;99.90
33793;DHT22;20105;48.764;9.178;2022-10-16T16:23:18;20.60;99.90
33793;DHT22;20105;48.764;9.178;2022-10-16T16:25:45;20.40;99.90
33793;DHT22;20105;48.764;9.178;2022-10-16T16:28:10;20.10;99.90
33793;DHT22;20105;48.764;9.178;2022-10-16T16:30:39;19.90;99.90
33793;DHT22;20105;48.764;9.178;2022-10-16T16:33:05;19.70;99.90
33793;DHT22;20105;48.764;9.178;2022-10-16T16:35:31;19.60;99.90
33793;DHT22;20105;48.764;9.178;2022-10-16T16:37:56;19.50;99.90
